Time;durP1;ratioP1;P1;durP2;ratioP2;P2;SDS_P1;SDS_P2;PMS_P1;PMS_P2;Temp;Humidity;BMP_temperature;BMP_pressure;BME280_temperature;BME280_humidity;BME280_pressure;Samples;Min_cycle;Max_cycle;Signal;HPM_P1;HPM_P2
2022/08/10 00:01:37;;;;;;;8.83;3.07;;;17.50;99.90;;;;;;5133907;28;20238;-51
2022/08/10 00:04:08;;;;;;;4.07;2.30;;;17.40;99.90;;;;;;5126638;28;20225;-50
2022/08/10 00:06:39;;;;;;;3.80;2.00;;;17.40;99.90;;;;;;5099665;28;20342;-50
2022/08/10 00:09:09;;;;;;;2.17;1.80;;;17.40;99.90;;;;;;5099499;29;21221;-51
2022/08/10 00:11:40;;;;;;;3.60;2.47;;;17.40;99.90;;;;;;5095139;29;20203;-50
2022/08/10 00:14:10;;;;;;;7.67;2.23;;;17.30;99.90;;;;;;5090452;28;20234;-50
2022/08/10 00:16:41;;;;;;;3.47;2.40;;;17.30;99.90;;;;;;5101435;28;20294;-50
2022/08/10 00:19:12;;;;;;;1.80;1.70;;;17.20;99.90;;;;;;5095554;29;20198;-50
2022/08/10 00:21:43;;;;;;;5.83;2.50;;;17.20;99.90;;;;;;5104306;29;20289;-50
2022/08/10 00:24:13;;;;;;;2.40;2.20;;;17.10;99.90;;;;;;5088895;29;20258;-51
2022/08/10 00:26:44;;;;;;;3.70;2.40;;;17.10;99.90;;;;;;5105458;28;20448;-50
2022/08/10 00:29:15;;;;;;;1.77;1.70;;;17.10;99.90;;;;;;5093569;29;20187;-50
2022/08/10 00:31:46;;;;;;;3.20;2.30;;;17.10;99.90;;;;;;5135671;28;20675;-50
2022/08/10 00:34:16;;;;;;;2.43;2.10;;;17.00;99.90;;;;;;5100771;28;20221;-53
2022/08/10 00:36:47;;;;;;;2.90;2.30;;;16.90;99.90;;;;;;5096889;28;20274;-51
2022/08/10 00:39:17;;;;;;;4.47;2.60;;;16.90;99.90;;;;;;5096207;29;20180;-50
2022/08/10 00:41:48;;;;;;;4.40;2.50;;;16.90;99.90;;;;;;5092427;29;20639;-51
2022/08/10 00:44:18;;;;;;;2.30;2.20;;;16.90;99.90;;;;;;5097103;28;20223;-54
2022/08/10 00:46:49;;;;;;;2.33;2.23;;;17.00;99.90;;;;;;5093367;28;20297;-50
2022/08/10 00:49:19;;;;;;;5.90;2.60;;;16.90;99.90;;;;;;5099556;29;20223;-51
2022/08/10 00:51:50;;;;;;;3.00;2.90;;;16.80;99.90;;;;;;5093786;28;20199;-50
2022/08/10 00:54:21;;;;;;;2.90;2.70;;;16.80;99.90;;;;;;5104350;28;20597;-51
2022/08/10 00:56:52;;;;;;;4.90;3.53;;;16.80;99.90;;;;;;5091838;28;20192;-50
2022/08/10 00:59:23;;;;;;;2.97;2.67;;;16.80;99.90;;;;;;5098890;29;20249;-50
2022/08/10 01:01:54;;;;;;;2.30;2.20;;;16.70;99.90;;;;;;5104663;28;20219;-50
2022/08/10 01:04:24;;;;;;;7.00;2.97;;;16.70;99.90;;;;;;5095552;28;20475;-51
2022/08/10 01:07:20;;;;;;;3.10;2.90;;;16.70;99.90;;;;;;5084168;28;20187;-50
2022/08/10 01:10:06;;;;;;;12.03;2.77;;;16.60;99.90;;;;;;5123823;28;20318;-51
2022/08/10 01:12:56;;;;;;;4.53;2.70;;;16.60;99.90;;;;;;5090875;29;20436;-51
2022/08/10 01:15:46;;;;;;;2.53;2.33;;;16.60;99.90;;;;;;5101270;29;20959;-53
2022/08/10 01:18:27;;;;;;;5.47;2.67;;;16.60;99.90;;;;;;5089790;29;20439;-50
2022/08/10 01:21:20;;;;;;;4.03;2.60;;;16.50;99.90;;;;;;5099761;29;20498;-50
2022/08/10 01:24:30;;;;;;;8.73;2.93;;;16.50;99.90;;;;;;5098460;28;20466;-50
2022/08/10 01:27:03;;;;;;;5.03;3.47;;;16.50;99.90;;;;;;5092800;28;20865;-52
2022/08/10 01:29:43;;;;;;;5.47;3.20;;;16.50;99.90;;;;;;5096949;28;20532;-50
2022/08/10 01:32:22;;;;;;;2.63;2.43;;;16.50;99.90;;;;;;5101064;28;20471;-50
2022/08/10 01:35:20;;;;;;;2.87;2.70;;;16.50;99.90;;;;;;5103006;28;20810;-51
2022/08/10 01:38:05;;;;;;;2.87;2.60;;;16.40;99.90;;;;;;5091809;28;20798;-51
2022/08/10 01:40:43;;;;;;;2.73;2.43;;;16.30;99.90;;;;;;5097859;28;21111;-50
2022/08/10 01:43:18;;;;;;;3.10;2.90;;;16.20;99.90;;;;;;5104765;28;20478;-51
2022/08/10 01:45:52;;;;;;;6.30;3.00;;;16.20;99.90;;;;;;5097308;28;20960;-51
2022/08/10 01:48:31;;;;;;;2.67;2.40;;;16.20;99.90;;;;;;5096056;28;20449;-49
2022/08/10 01:51:19;;;;;;;3.83;2.90;;;16.10;99.90;;;;;;5092605;28;20493;-49
2022/08/10 01:54:00;;;;;;;8.70;3.30;;;16.10;99.90;;;;;;5093183;28;20474;-50
2022/08/10 01:56:35;;;;;;;2.90;2.70;;;16.10;99.90;;;;;;5091894;28;20435;-49
2022/08/10 01:59:10;;;;;;;3.40;3.10;;;16.00;99.90;;;;;;5098775;29;20525;-52
2022/08/10 02:01:46;;;;;;;5.23;3.73;;;16.00;99.90;;;;;;5090933;28;20999;-49
2022/08/10 02:04:19;;;;;;;6.57;3.33;;;15.90;99.90;;;;;;5079225;28;20505;-51
2022/08/10 02:06:52;;;;;;;3.40;3.10;;;15.90;99.90;;;;;;5095677;28;20526;-50
2022/08/10 02:09:30;;;;;;;4.00;3.57;;;15.90;99.90;;;;;;5102237;28;20443;-50
2022/08/10 02:12:07;;;;;;;3.43;3.10;;;15.80;99.90;;;;;;5094030;28;20830;-49
2022/08/10 02:14:52;;;;;;;3.23;3.13;;;15.80;99.90;;;;;;5104802;28;20490;-49
2022/08/10 02:17:40;;;;;;;3.83;3.43;;;15.80;99.90;;;;;;5095664;28;20446;-49
2022/08/10 02:20:17;;;;;;;10.60;3.53;;;15.80;99.90;;;;;;5095975;29;20554;-50
2022/08/10 02:23:10;;;;;;;5.57;4.10;;;15.70;99.90;;;;;;5094415;29;20469;-49
2022/08/10 02:25:42;;;;;;;5.07;3.63;;;15.70;99.90;;;;;;5096411;28;21322;-50
2022/08/10 02:28:20;;;;;;;3.00;2.90;;;15.60;99.90;;;;;;5097819;29;20474;-49
2022/08/10 02:30:53;;;;;;;4.00;3.27;;;15.60;99.90;;;;;;5097223;29;20491;-50
2022/08/10 02:33:26;;;;;;;4.50;3.47;;;15.50;99.90;;;;;;5094938;28;20933;-50
2022/08/10 02:36:00;;;;;;;3.53;3.27;;;15.60;99.90;;;;;;5100025;29;20529;-51
2022/08/10 02:38:36;;;;;;;5.93;3.80;;;15.50;99.90;;;;;;5102057;28;20469;-50
2022/08/10 02:41:12;;;;;;;8.37;3.17;;;15.50;99.90;;;;;;5096887;28;20470;-49
2022/08/10 02:43:52;;;;;;;5.90;4.07;;;15.50;99.90;;;;;;5095633;28;20513;-50
2022/08/10 02:46:33;;;;;;;3.83;3.40;;;15.50;99.90;;;;;;5097828;28;20442;-50
2022/08/10 02:49:05;;;;;;;4.03;3.70;;;15.50;99.90;;;;;;5105995;28;20512;-54
2022/08/10 02:52:08;;;;;;;4.33;4.00;;;15.50;99.90;;;;;;5106240;29;20458;-53
2022/08/10 02:54:54;;;;;;;4.23;3.53;;;15.40;99.90;;;;;;5137753;28;20442;-51
2022/08/10 02:57:32;;;;;;;9.73;4.67;;;15.40;99.90;;;;;;5098211;29;20545;-50
2022/08/10 03:00:06;;;;;;;3.93;3.73;;;15.40;99.90;;;;;;5096762;28;20467;-51
2022/08/10 03:02:40;;;;;;;7.93;4.43;;;15.30;99.90;;;;;;5104670;29;20907;-50
2022/08/10 03:05:13;;;;;;;6.67;4.40;;;15.30;99.90;;;;;;5102455;28;20591;-52
2022/08/10 03:07:54;;;;;;;3.93;3.60;;;15.30;99.90;;;;;;5115267;28;20521;-51
2022/08/10 03:10:28;;;;;;;12.97;5.53;;;15.30;99.90;;;;;;5093911;29;20849;-50
2022/08/10 03:13:00;;;;;;;5.37;4.17;;;15.30;99.90;;;;;;5104436;28;20858;-51
2022/08/10 03:15:33;;;;;;;10.13;5.07;;;15.30;99.90;;;;;;5098735;29;20442;-49
2022/08/10 03:18:04;;;;;;;6.43;4.53;;;15.20;99.90;;;;;;5130039;28;20941;-50
2022/08/10 03:20:38;;;;;;;5.40;4.73;;;15.20;99.90;;;;;;5105077;28;20466;-51
2022/08/10 03:23:24;;;;;;;4.57;4.00;;;15.20;99.90;;;;;;5099082;28;20466;-50
2022/08/10 03:25:57;;;;;;;5.97;4.17;;;15.20;99.90;;;;;;5102417;28;20941;-51
2022/08/10 03:28:31;;;;;;;8.30;4.90;;;15.20;99.90;;;;;;5103447;29;20935;-51
2022/08/10 03:31:02;;;;;;;4.90;4.40;;;15.20;99.90;;;;;;5103678;29;20463;-53
2022/08/10 03:33:36;;;;;;;11.37;5.00;;;15.20;99.90;;;;;;5096740;28;20855;-51
2022/08/10 03:36:08;;;;;;;5.60;4.70;;;15.20;99.90;;;;;;5094189;29;20565;-51
2022/08/10 03:38:44;;;;;;;7.13;4.80;;;15.20;99.90;;;;;;5123652;28;20484;-50
2022/08/10 03:41:17;;;;;;;7.00;5.10;;;15.20;99.90;;;;;;5102873;28;20468;-51
2022/08/10 03:43:48;;;;;;;7.60;5.10;;;15.20;99.90;;;;;;5103625;29;20474;-50
2022/08/10 03:46:22;;;;;;;11.60;5.27;;;15.30;99.90;;;;;;5100234;29;20458;-50
2022/08/10 03:48:56;;;;;;;10.00;5.00;;;15.30;99.90;;;;;;5093837;29;20442;-50
2022/08/10 03:51:28;;;;;;;6.53;4.60;;;15.30;99.90;;;;;;5111260;28;20463;-52
2022/08/10 03:54:00;;;;;;;5.37;4.87;;;15.30;99.90;;;;;;5092839;28;20447;-50
2022/08/10 03:56:32;;;;;;;5.80;4.53;;;15.30;99.90;;;;;;5099965;29;20451;-51
2022/08/10 03:59:05;;;;;;;5.93;4.73;;;15.30;99.90;;;;;;5102507;29;20443;-50
2022/08/10 04:01:35;;;;;;;8.97;4.97;;;15.30;99.90;;;;;;5101261;28;20475;-51
2022/08/10 04:04:06;;;;;;;6.00;4.43;;;15.30;99.90;;;;;;5089871;29;20806;-49
2022/08/10 04:06:37;;;;;;;4.30;3.90;;;15.40;99.90;;;;;;5111638;28;20195;-51
2022/08/10 04:09:08;;;;;;;5.50;5.00;;;15.40;99.90;;;;;;5105598;28;20214;-50
2022/08/10 04:11:40;;;;;;;5.50;4.67;;;15.40;99.90;;;;;;5098051;28;20203;-51
2022/08/10 04:14:11;;;;;;;5.43;4.90;;;15.50;99.90;;;;;;5093280;29;20443;-49
2022/08/10 04:16:41;;;;;;;6.63;4.77;;;15.40;99.90;;;;;;5094790;29;21054;-51
2022/08/10 04:19:16;;;;;;;8.63;4.40;;;15.40;99.90;;;;;;5100279;29;20581;-49
2022/08/10 04:22:04;;;;;;;8.20;5.47;;;15.40;99.90;;;;;;5104760;28;20214;-51
2022/08/10 04:24:37;;;;;;;7.70;5.40;;;15.40;99.90;;;;;;5111528;28;20477;-51
2022/08/10 04:27:08;;;;;;;9.00;5.80;;;15.30;99.90;;;;;;5093711;29;20447;-52
2022/08/10 04:29:39;;;;;;;6.90;5.60;;;15.30;99.90;;;;;;5099665;29;20500;-51
2022/08/10 04:32:12;;;;;;;14.07;5.90;;;15.30;99.90;;;;;;5104680;28;20455;-51
2022/08/10 04:34:44;;;;;;;8.53;6.13;;;15.30;99.90;;;;;;5093615;28;20190;-50
2022/08/10 04:37:18;;;;;;;7.93;5.00;;;15.30;99.90;;;;;;5098911;29;20435;-50
2022/08/10 04:39:50;;;;;;;7.60;5.03;;;15.30;99.90;;;;;;5098650;28;20587;-50
2022/08/10 04:42:21;;;;;;;7.03;5.77;;;15.40;99.90;;;;;;5098023;28;20455;-50
2022/08/10 04:44:52;;;;;;;7.00;4.90;;;15.40;99.90;;;;;;5089553;29;20475;-49
2022/08/10 04:47:23;;;;;;;7.40;5.67;;;15.40;99.90;;;;;;5100462;28;20446;-49
2022/08/10 04:49:53;;;;;;;6.00;5.00;;;15.60;99.90;;;;;;5100990;29;20435;-49
2022/08/10 04:52:24;;;;;;;7.00;5.00;;;15.70;99.90;;;;;;5114307;28;20279;-50
2022/08/10 04:54:55;;;;;;;9.53;4.97;;;15.90;99.90;;;;;;5153615;28;20716;-51
2022/08/10 04:57:27;;;;;;;9.03;5.23;;;16.20;99.90;;;;;;5094278;29;20195;-50
2022/08/10 04:59:57;;;;;;;9.50;6.10;;;16.70;99.90;;;;;;5097662;28;20439;-51
2022/08/10 05:02:28;;;;;;;8.03;5.23;;;16.80;99.90;;;;;;5085415;28;20462;-49
2022/08/10 05:04:59;;;;;;;5.50;4.50;;;16.80;99.90;;;;;;5098902;28;20274;-49
2022/08/10 05:07:29;;;;;;;13.77;5.33;;;16.80;99.90;;;;;;5103142;28;20183;-50
2022/08/10 05:10:00;;;;;;;9.73;4.77;;;17.50;99.90;;;;;;5098582;28;20651;-53
2022/08/10 05:12:31;;;;;;;5.33;5.00;;;17.70;99.90;;;;;;5107688;28;20194;-49
2022/08/10 05:15:04;;;;;;;5.30;4.80;;;17.40;99.90;;;;;;5096049;28;20233;-50
2022/08/10 05:17:36;;;;;;;7.43;4.90;;;17.30;99.90;;;;;;5099260;29;20442;-49
2022/08/10 05:20:09;;;;;;;9.10;4.80;;;18.30;99.90;;;;;;5090321;28;20459;-51
2022/08/10 05:22:42;;;;;;;7.90;4.67;;;20.00;99.90;;;;;;5103636;28;20446;-50
2022/08/10 05:25:15;;;;;;;3.90;3.23;;;21.60;99.90;;;;;;5088008;29;20443;-50
2022/08/10 05:27:47;;;;;;;2.87;2.67;;;23.90;97.10;;;;;;5097132;28;20441;-50
2022/08/10 05:30:20;;;;;;;8.97;4.20;;;26.20;79.70;;;;;;5093204;28;20970;-52
2022/08/10 05:32:51;;;;;;;4.60;3.30;;;27.80;60.70;;;;;;5105817;29;20458;-50
2022/08/10 05:35:22;;;;;;;4.00;3.03;;;29.00;53.30;;;;;;5093755;29;20501;-49
2022/08/10 05:37:55;;;;;;;3.23;2.87;;;29.80;50.50;;;;;;5100395;28;20581;-49
2022/08/10 05:40:27;;;;;;;6.17;2.87;;;30.40;48.10;;;;;;5095212;28;20481;-50
2022/08/10 05:42:58;;;;;;;5.67;3.00;;;31.50;46.00;;;;;;5119474;28;20458;-49
2022/08/10 05:45:28;;;;;;;6.00;3.03;;;32.30;43.00;;;;;;5096707;29;20469;-51
2022/08/10 05:47:59;;;;;;;3.20;2.30;;;32.90;40.90;;;;;;5082678;28;20596;-50
2022/08/10 05:50:30;;;;;;;10.80;3.57;;;33.10;40.40;;;;;;5090748;28;20725;-50
2022/08/10 05:53:01;;;;;;;6.10;3.53;;;32.30;40.60;;;;;;5088642;28;20664;-50
2022/08/10 05:55:31;;;;;;;3.00;2.70;;;31.20;41.20;;;;;;5113614;28;20302;-48
2022/08/10 05:58:02;;;;;;;4.40;2.80;;;31.20;42.70;;;;;;5093743;28;20198;-50
2022/08/10 06:00:35;;;;;;;7.70;3.10;;;32.60;40.60;;;;;;5101563;28;20579;-50
2022/08/10 06:03:07;;;;;;;9.40;3.13;;;33.60;38.30;;;;;;5097412;29;20222;-50
2022/08/10 06:05:42;;;;;;;3.30;3.00;;;33.50;37.50;;;;;;5111187;29;20483;-51
2022/08/10 06:08:18;;;;;;;3.43;3.13;;;33.60;37.40;;;;;;5098280;29;20556;-50
2022/08/10 06:10:52;;;;;;;3.40;2.70;;;33.60;37.80;;;;;;5098355;28;20489;-50
2022/08/10 06:16:15;;;;;;;3.63;2.40;;;33.10;37.30;;;;;;5095169;28;20516;-50
2022/08/10 06:18:47;;;;;;;5.20;3.10;;;31.80;39.40;;;;;;5086080;28;20469;-54
2022/08/10 06:21:18;;;;;;;2.40;2.20;;;32.30;39.30;;;;;;5122893;28;20835;-50
2022/08/10 06:23:50;;;;;;;4.53;2.50;;;32.90;39.20;;;;;;5094435;29;20474;-52
2022/08/10 06:26:21;;;;;;;3.33;2.07;;;34.00;37.00;;;;;;5097537;28;20806;-51
2022/08/10 06:29:01;;;;;;;3.67;2.73;;;34.10;37.00;;;;;;5095251;28;20450;-51
2022/08/10 06:31:42;;;;;;;2.37;2.27;;;34.90;35.80;;;;;;5093963;28;20302;-50
2022/08/10 06:34:14;;;;;;;2.93;2.67;;;34.10;35.00;;;;;;5112922;28;20427;-50
2022/08/10 06:36:46;;;;;;;2.47;1.80;;;33.60;37.10;;;;;;5097148;28;20435;-50
2022/08/10 06:39:17;;;;;;;3.50;2.23;;;33.80;36.70;;;;;;5108003;28;20430;-50
2022/08/10 06:41:50;;;;;;;2.60;2.40;;;34.40;35.40;;;;;;5095835;28;20953;-50
2022/08/10 06:44:28;;;;;;;9.33;3.00;;;33.30;35.70;;;;;;5104234;28;20473;-52
2022/08/10 06:47:01;;;;;;;3.83;3.07;;;32.00;38.40;;;;;;5098810;28;20802;-51
2022/08/10 06:49:32;;;;;;;3.40;2.63;;;32.30;37.90;;;;;;5101331;29;20440;-50
2022/08/10 06:52:09;;;;;;;2.07;1.97;;;32.50;37.60;;;;;;5103881;28;20540;-50
2022/08/10 06:54:41;;;;;;;8.17;2.10;;;32.10;37.80;;;;;;5094299;28;20486;-49
2022/08/10 06:57:13;;;;;;;2.47;1.60;;;32.20;38.40;;;;;;5103795;28;20434;-50
2022/08/10 06:59:46;;;;;;;1.93;1.83;;;32.30;37.70;;;;;;5096661;28;20442;-51
2022/08/10 07:02:25;;;;;;;2.47;2.07;;;32.40;38.40;;;;;;5183725;23;20497;-51
2022/08/10 07:05:02;;;;;;;2.90;2.23;;;32.50;38.40;;;;;;5201816;28;20514;-51
2022/08/10 07:07:37;;;;;;;2.47;2.03;;;33.50;36.20;;;;;;5194031;28;20433;-51
2022/08/10 07:10:09;;;;;;;1.87;1.87;;;35.40;34.20;;;;;;5211980;28;20413;-52
2022/08/10 07:12:40;;;;;;;3.43;1.70;;;37.10;32.20;;;;;;5207549;28;20178;-51
2022/08/10 07:15:12;;;;;;;6.33;2.23;;;38.30;30.40;;;;;;5200392;28;20683;-52
2022/08/10 07:17:45;;;;;;;6.17;2.70;;;37.90;29.70;;;;;;5207447;28;20179;-51
2022/08/10 07:20:18;;;;;;;2.07;1.93;;;36.70;30.70;;;;;;5204207;28;20187;-51
2022/08/10 07:22:51;;;;;;;6.33;2.50;;;36.30;31.30;;;;;;5206748;28;20707;-52
2022/08/10 07:25:24;;;;;;;1.97;1.87;;;36.30;31.60;;;;;;5211478;28;20194;-52
2022/08/10 07:27:57;;;;;;;1.60;1.50;;;36.70;30.70;;;;;;5224385;28;20187;-51
2022/08/10 07:30:36;;;;;;;2.05;1.88;;;37.90;30.10;;;;;;5209837;28;20665;-52
2022/08/10 07:33:09;;;;;;;1.67;1.58;;;39.10;28.60;;;;;;5189427;28;20675;-53
2022/08/10 07:35:41;;;;;;;2.45;2.25;;;40.20;27.60;;;;;;5206354;28;20202;-52
2022/08/10 07:38:21;;;;;;;2.40;2.20;;;38.80;28.00;;;;;;5203313;28;21004;-51
2022/08/10 07:40:53;;;;;;;2.38;2.17;;;37.90;29.10;;;;;;5200448;28;20207;-52
2022/08/10 07:43:26;;;;;;;4.13;2.22;;;38.10;29.00;;;;;;5203986;28;20206;-52
2022/08/10 07:45:58;;;;;;;2.85;2.33;;;38.30;28.10;;;;;;5201455;28;20195;-52
2022/08/10 07:48:32;;;;;;;8.90;2.30;;;37.50;28.40;;;;;;5191068;28;20193;-52
2022/08/10 07:51:06;;;;;;;2.73;2.40;;;36.60;29.00;;;;;;5205571;28;20206;-51
2022/08/10 07:53:42;;;;;;;2.10;2.00;;;35.50;30.10;;;;;;5205727;28;20191;-51
2022/08/10 07:56:14;;;;;;;4.63;2.50;;;35.10;30.70;;;;;;5205332;28;20372;-52
2022/08/10 07:58:56;;;;;;;2.10;1.67;;;35.40;30.90;;;;;;5206685;28;20186;-52
2022/08/10 08:01:30;;;;;;;2.83;2.33;;;36.30;30.00;;;;;;5197943;28;20222;-52
2022/08/10 08:04:02;;;;;;;2.23;2.10;;;36.40;29.00;;;;;;5205816;28;20213;-52
2022/08/10 08:06:34;;;;;;;6.43;1.50;;;35.90;29.40;;;;;;5200046;28;20442;-51
2022/08/10 08:09:05;;;;;;;5.30;2.30;;;35.50;29.80;;;;;;5201927;28;20456;-52
2022/08/10 08:11:38;;;;;;;6.33;2.10;;;35.30;30.50;;;;;;5201091;28;20261;-51
2022/08/10 08:14:10;;;;;;;2.70;1.80;;;35.30;30.00;;;;;;5196818;28;20261;-52
2022/08/10 08:16:44;;;;;;;2.10;2.00;;;35.70;29.90;;;;;;5208846;28;20278;-51
2022/08/10 08:19:16;;;;;;;1.77;1.67;;;35.90;29.70;;;;;;5200064;28;20179;-51
2022/08/10 08:21:48;;;;;;;2.47;2.27;;;36.30;28.60;;;;;;5201377;28;20218;-50
2022/08/10 08:24:20;;;;;;;1.27;1.17;;;36.20;29.10;;;;;;5200584;28;20526;-52
2022/08/10 08:26:51;;;;;;;2.67;2.10;;;37.20;28.10;;;;;;5203762;28;20555;-51
2022/08/10 08:29:24;;;;;;;7.30;1.87;;;38.30;26.90;;;;;;5196572;28;20206;-51
2022/08/10 08:31:55;;;;;;;1.23;1.23;;;38.50;26.50;;;;;;5202860;28;20206;-51
2022/08/10 08:34:27;;;;;;;4.82;1.90;;;38.30;26.40;;;;;;5198333;28;20184;-52
2022/08/10 08:36:59;;;;;;;3.93;1.33;;;38.10;26.20;;;;;;5202483;28;20194;-53
2022/08/10 08:39:31;;;;;;;3.80;1.30;;;36.90;27.40;;;;;;5202293;28;20206;-51
2022/08/10 08:42:39;;;;;;;1.70;1.47;;;36.70;28.10;;;;;;5202723;28;20262;-52
2022/08/10 08:45:38;;;;;;;6.63;1.57;;;36.40;27.20;;;;;;5195936;28;20215;-52
2022/08/10 08:48:20;;;;;;;1.40;1.40;;;34.50;28.80;;;;;;5200580;28;20186;-52
2022/08/10 08:51:15;;;;;;;1.33;1.33;;;34.30;29.80;;;;;;5201683;28;20477;-51
2022/08/10 08:53:57;;;;;;;1.67;1.57;;;34.30;30.50;;;;;;5194205;28;20434;-52
2022/08/10 08:56:57;;;;;;;7.43;3.47;;;33.70;30.20;;;;;;5200563;28;20187;-51
2022/08/10 08:59:51;;;;;;;3.23;2.40;;;32.50;32.50;;;;;;5178172;28;20438;-50
2022/08/10 09:02:37;;;;;;;3.13;1.70;;;31.50;34.60;;;;;;5196537;28;20461;-51
2022/08/10 09:05:37;;;;;;;3.23;1.23;;;31.20;33.90;;;;;;5202621;28;20477;-51
2022/08/10 09:08:40;;;;;;;2.03;1.80;;;30.90;33.20;;;;;;5203910;28;20989;-51
2022/08/10 09:11:31;;;;;;;1.53;1.43;;;30.00;34.10;;;;;;5202609;28;20497;-51
2022/08/10 09:14:16;;;;;;;1.67;1.60;;;28.60;36.80;;;;;;5200967;28;20466;-51
2022/08/10 09:16:54;;;;;;;1.63;1.53;;;27.60;38.50;;;;;;5200462;28;20565;-50
2022/08/10 09:19:24;;;;;;;3.33;2.13;;;27.00;39.40;;;;;;5200504;28;20442;-51
2022/08/10 09:22:23;;;;;;;1.40;1.33;;;26.60;40.60;;;;;;5201277;28;20528;-50
2022/08/10 09:25:15;;;;;;;11.33;1.93;;;26.20;38.60;;;;;;5196553;28;20220;-50
2022/08/10 09:28:02;;;;;;;1.20;1.20;;;25.80;39.60;;;;;;5206007;28;20466;-51
2022/08/10 09:31:02;;;;;;;1.33;1.00;;;25.40;36.50;;;;;;5201454;28;20771;-51
2022/08/10 09:33:51;;;;;;;1.37;1.10;;;25.10;39.20;;;;;;5197503;28;20798;-51
2022/08/10 09:36:52;;;;;;;1.80;1.70;;;25.10;40.30;;;;;;5203919;28;20430;-51
2022/08/10 09:39:26;;;;;;;0.60;0.60;;;25.20;40.30;;;;;;5191617;28;20434;-51
2022/08/10 09:42:16;;;;;;;1.33;1.00;;;25.20;36.30;;;;;;5202865;28;20530;-51
2022/08/10 09:44:58;;;;;;;2.40;0.80;;;25.30;35.70;;;;;;5204789;28;20520;-50
2022/08/10 09:47:49;;;;;;;1.27;1.27;;;25.40;35.80;;;;;;5191886;28;20474;-51
2022/08/10 09:50:27;;;;;;;3.63;1.30;;;25.60;36.50;;;;;;5214128;28;20772;-50
2022/08/10 09:53:36;;;;;;;2.20;1.10;;;25.60;36.90;;;;;;5205197;28;20527;-51
2022/08/10 09:56:35;;;;;;;0.83;0.83;;;25.40;36.30;;;;;;5201002;28;20562;-51
2022/08/10 09:59:35;;;;;;;1.63;1.10;;;25.30;36.80;;;;;;5197507;28;20468;-52
2022/08/10 10:02:20;;;;;;;1.60;1.50;;;25.30;37.60;;;;;;5191663;28;20479;-50
2022/08/10 10:05:19;;;;;;;0.93;0.93;;;25.40;36.70;;;;;;5199037;28;20469;-51
2022/08/10 10:08:15;;;;;;;1.07;1.07;;;25.30;37.30;;;;;;5197031;28;20484;-52
2022/08/10 10:11:00;;;;;;;2.23;1.20;;;25.30;37.40;;;;;;5184270;28;20455;-51
2022/08/10 10:13:54;;;;;;;4.00;1.10;;;25.30;37.30;;;;;;5197894;28;20510;-51
2022/08/10 10:16:32;;;;;;;2.47;1.40;;;25.50;37.00;;;;;;5201663;28;20438;-51
2022/08/10 10:19:28;;;;;;;1.43;1.20;;;25.40;36.10;;;;;;5202312;28;20783;-51
2022/08/10 10:22:07;;;;;;;6.47;1.43;;;25.40;37.10;;;;;;5198158;28;20543;-50
2022/08/10 10:24:49;;;;;;;1.13;1.13;;;25.40;36.30;;;;;;5192923;28;20462;-52
2022/08/10 10:27:29;;;;;;;7.33;1.37;;;25.40;37.10;;;;;;5203192;28;20457;-51
2022/08/10 10:30:09;;;;;;;1.10;1.10;;;25.40;37.20;;;;;;5194557;28;20430;-51
2022/08/10 10:33:01;;;;;;;3.37;1.23;;;25.40;38.40;;;;;;5208220;28;21273;-52
2022/08/10 10:35:37;;;;;;;3.27;1.60;;;25.50;38.30;;;;;;5216246;28;20494;-51
2022/08/10 10:38:10;;;;;;;8.37;6.03;;;25.20;37.20;;;;;;5191195;28;20437;-52
2022/08/10 10:41:15;;;;;;;2.10;1.87;;;25.10;38.30;;;;;;5201817;28;20566;-50
2022/08/10 10:44:13;;;;;;;1.93;1.83;;;25.10;37.90;;;;;;5204040;28;20763;-52
2022/08/10 10:47:13;;;;;;;1.73;1.03;;;25.20;38.10;;;;;;5219470;28;20555;-51
2022/08/10 10:50:11;;;;;;;1.37;1.27;;;25.30;37.80;;;;;;5182866;28;20449;-49
2022/08/10 10:53:06;;;;;;;2.90;1.50;;;25.40;37.60;;;;;;5199677;28;20797;-51
2022/08/10 10:56:03;;;;;;;1.17;1.17;;;25.50;37.70;;;;;;5200246;28;20813;-50
2022/08/10 10:58:48;;;;;;;3.40;1.53;;;25.60;36.90;;;;;;5201727;28;20430;-50
2022/08/10 11:01:21;;;;;;;1.30;1.30;;;25.50;36.30;;;;;;5197206;28;20486;-50
2022/08/10 11:04:04;;;;;;;1.53;1.43;;;25.60;35.50;;;;;;5200865;28;20465;-51
2022/08/10 11:07:12;;;;;;;1.47;1.37;;;25.60;35.80;;;;;;5194780;28;20442;-51
2022/08/10 11:09:56;;;;;;;2.13;1.87;;;25.60;36.10;;;;;;5179272;28;20438;-51
2022/08/10 11:12:48;;;;;;;2.33;2.23;;;25.70;36.70;;;;;;5193602;28;20464;-50
2022/08/10 11:15:42;;;;;;;2.57;1.30;;;25.90;35.50;;;;;;5202243;28;20453;-51
2022/08/10 11:18:32;;;;;;;1.03;1.03;;;26.10;34.30;;;;;;5194941;28;20852;-50
2022/08/10 11:21:30;;;;;;;1.10;1.10;;;26.00;34.40;;;;;;5194485;28;20446;-51
2022/08/10 11:24:19;;;;;;;5.63;4.40;;;26.00;35.30;;;;;;5187261;28;20473;-52
2022/08/10 11:27:17;;;;;;;2.63;1.87;;;25.90;35.20;;;;;;5199809;28;20426;-50
2022/08/10 11:29:51;;;;;;;1.10;1.10;;;26.00;35.10;;;;;;5203745;28;20918;-51
2022/08/10 11:32:38;;;;;;;4.53;1.43;;;26.00;35.70;;;;;;5206117;28;20875;-51
2022/08/10 11:35:44;;;;;;;1.90;1.30;;;26.10;35.80;;;;;;5199288;28;20438;-51
2022/08/10 11:38:30;;;;;;;1.00;1.00;;;26.20;35.30;;;;;;5198116;28;20444;-50
2022/08/10 11:41:12;;;;;;;2.87;1.03;;;26.20;35.50;;;;;;5203437;28;20454;-52
2022/08/10 11:43:52;;;;;;;1.73;1.30;;;26.10;34.50;;;;;;5202336;28;20462;-51
2022/08/10 11:46:30;;;;;;;2.43;0.97;;;26.10;34.70;;;;;;5205651;28;20938;-56
2022/08/10 11:49:07;;;;;;;0.90;0.90;;;26.10;34.90;;;;;;5200107;28;20968;-50
2022/08/10 11:51:49;;;;;;;2.00;1.20;;;26.20;34.30;;;;;;5203032;28;20466;-51
2022/08/10 11:54:34;;;;;;;0.90;0.90;;;26.20;33.70;;;;;;5200047;28;20465;-51
2022/08/10 11:57:05;;;;;;;1.33;1.23;;;26.40;33.40;;;;;;5218420;28;20486;-51
2022/08/10 11:59:56;;;;;;;1.83;1.57;;;26.40;32.80;;;;;;5203611;28;20446;-51
2022/08/10 12:02:47;;;;;;;1.80;1.70;;;26.50;33.30;;;;;;5200634;28;21070;-51
2022/08/10 12:05:35;;;;;;;0.70;0.70;;;26.60;32.80;;;;;;5198134;28;20438;-51
2022/08/10 12:08:07;;;;;;;1.13;1.13;;;26.70;33.10;;;;;;5205625;28;20442;-51
2022/08/10 12:10:39;;;;;;;2.60;1.30;;;26.80;32.90;;;;;;5198768;28;20484;-50
2022/08/10 12:13:29;;;;;;;1.67;1.57;;;26.80;33.10;;;;;;5196648;28;20768;-51
2022/08/10 12:16:11;;;;;;;3.90;1.30;;;26.70;33.40;;;;;;5203701;28;20439;-51
2022/08/10 12:18:58;;;;;;;7.87;1.07;;;26.70;33.10;;;;;;5203502;28;20453;-50
2022/08/10 12:21:45;;;;;;;2.73;1.27;;;26.60;32.40;;;;;;5196598;28;20474;-50
2022/08/10 12:24:41;;;;;;;2.73;1.30;;;26.50;33.30;;;;;;5197856;28;20565;-51
2022/08/10 12:27:20;;;;;;;2.83;1.43;;;26.50;33.20;;;;;;5213207;28;20457;-51
2022/08/10 12:30:02;;;;;;;1.10;1.10;;;26.40;33.00;;;;;;5202488;28;20438;-51
2022/08/10 12:32:55;;;;;;;1.50;1.30;;;26.60;33.70;;;;;;5200807;28;20497;-50
2022/08/10 12:35:49;;;;;;;0.80;0.80;;;26.90;32.80;;;;;;5199694;28;20454;-50
2022/08/10 12:38:23;;;;;;;2.50;1.27;;;26.80;32.30;;;;;;5204957;28;20434;-51
2022/08/10 12:40:59;;;;;;;4.40;1.67;;;26.80;32.90;;;;;;5204728;28;20472;-51
2022/08/10 12:43:40;;;;;;;1.43;1.33;;;26.80;32.90;;;;;;5204888;28;20511;-49
2022/08/10 12:46:19;;;;;;;2.13;1.47;;;26.90;32.50;;;;;;5200156;28;20437;-50
2022/08/10 12:49:07;;;;;;;1.13;1.13;;;27.40;32.10;;;;;;5203730;28;20438;-50
2022/08/10 12:51:52;;;;;;;3.90;1.80;;;27.60;31.30;;;;;;5200934;28;20453;-51
2022/08/10 12:54:23;;;;;;;1.50;1.40;;;27.50;31.20;;;;;;5200765;28;20488;-52
2022/08/10 12:57:14;;;;;;;4.57;1.33;;;27.60;31.30;;;;;;5203517;28;20432;-52
2022/08/10 12:59:49;;;;;;;0.90;0.90;;;27.60;30.80;;;;;;5205043;28;20439;-51
2022/08/10 13:02:38;;;;;;;0.80;0.80;;;27.50;30.20;;;;;;5133244;22;20928;-54
2022/08/10 13:05:12;;;;;;;4.40;1.23;;;27.40;30.20;;;;;;5108932;29;20822;-50
2022/08/10 13:07:45;;;;;;;4.33;1.60;;;27.30;30.90;;;;;;5094000;29;20431;-54
2022/08/10 13:10:17;;;;;;;1.57;0.80;;;27.50;30.20;;;;;;5096819;28;20563;-51
2022/08/10 13:12:55;;;;;;;1.50;1.20;;;27.40;29.70;;;;;;5077960;28;20473;-49
2022/08/10 13:15:32;;;;;;;2.53;1.20;;;27.30;30.00;;;;;;5077263;29;20478;-50
2022/08/10 13:18:06;;;;;;;7.40;1.57;;;27.30;30.40;;;;;;5078778;28;20977;-51
2022/08/10 13:20:39;;;;;;;2.57;1.33;;;27.20;31.00;;;;;;5070273;29;20578;-49
2022/08/10 13:23:19;;;;;;;4.73;1.47;;;27.20;30.80;;;;;;5080509;28;20486;-50
2022/08/10 13:25:52;;;;;;;1.30;1.30;;;27.10;31.00;;;;;;5092364;28;20936;-51
2022/08/10 13:28:41;;;;;;;1.00;1.00;;;27.10;31.30;;;;;;5088603;28;20435;-49
2022/08/10 13:31:25;;;;;;;1.90;1.40;;;27.20;31.30;;;;;;5079086;29;20452;-53
2022/08/10 13:34:00;;;;;;;1.20;1.10;;;27.30;31.10;;;;;;5081511;28;20461;-50
2022/08/10 13:36:37;;;;;;;1.20;1.20;;;27.30;31.00;;;;;;5076635;29;20451;-50
2022/08/10 13:39:10;;;;;;;1.70;1.27;;;27.40;31.00;;;;;;5076841;29;20494;-49
2022/08/10 13:41:43;;;;;;;1.70;1.20;;;27.40;30.90;;;;;;5074261;28;20558;-55
2022/08/10 13:44:30;;;;;;;3.13;1.80;;;27.50;30.60;;;;;;5078042;28;20456;-52
2022/08/10 13:47:01;;;;;;;1.83;1.47;;;27.40;30.40;;;;;;5079466;29;20447;-53